Laurel, MD (20708)

8:33 AM EST on December 04, 2016 (GMT -0500)
Snowden Pond at Montpelier | | Change Station

Elev 200 ft 39.04 °N, 76.83 °W | Updated 9 minutes ago

Clear
Clear
37.2 °F
Feels Like 37 °F
N
0.0
Wind Variable Wind from North

Today
High -- | Low -- °F
--% Chance of Precip.
Yesterday
High -- | Low -- °F
Precip. -- in
Pressure 30.31 in
Visibility 10.0 miles
Clouds Clear
Windchill 37 °F
Dew Point 31 °F
Humidity 78%
Rainfall 0.00 in
Snow Depth Not available.
7:10 AM 4:44 PM
Waxing Crescent, 22% visible
METAR KFME 041315Z AUTO 00000KT 10SM CLR 01/00 A3031 RMK AO1
Pressure 30.31 in
Visibility 10.0 miles
Clouds Clear
Windchill 37 °F
Dew Point 31 °F
Humidity 78%
Rainfall 0.00 in
Snow Depth Not available.
7:10 AM 4:44 PM
Waxing Crescent, 22% visible
METAR KFME 041315Z AUTO 00000KT 10SM CLR 01/00 A3031 RMK AO1

10-Day Weather Forecast

Almanac

Astronomy

Dec. 04, 2016 Rise Set
Actual Time
Civil Twilight
Nautical Twilight
Astronomical Twilight
Moon
Length of Visible Light
Length of Day
Tomorrow will be .
, % of the Moon is Illuminated

Today's Extremes

State Highs State Lows

Community

WunderPhotos

Upload Photos

1,955,593 photos uploaded!

WunderBlog® & News

Nearby

Air Quality

  Air Quality AQ Index Pollutant
Not available.

Snow Depth

Station Depth Elevation

Earthquake Activity

City Distance Mag. Time & Date
Minimum magnitude displayed is 2.5.

Coastal Water Temperatures

Place Temperature

Stations

Nearby Weather Stations

Station Location Temp. Windchill Dew Point Humidity Wind Precip. Elev Updated Type
                   

Watches & Warnings

There are currently no watches in effect.